Adel, Iowa
Current Conditions -  °F | °C
As of 3:55 AM on Saturday 25 Oct 2014 (Local Time) from KPRO Reporting Station
Clear Clear  
Wind Chill: 47°   Ceiling: Unl
Heat Index: 48°   Visibility: 10mi
Dew Point: 47°   Wind: 5mph
Humidity: 94%   Direction: 310°NW
Pressure: 30.01"   Gusts: NA
Location:  41.61°N, 94.02°W
Report Text: KPRO 250855Z AUTO 31004KT 10SM CLR 09/08 A3001 RMK AO2 T00910082
Loading
Personal Weather Stations






























Interactive Weather Map
Tropical Storm Tracking
New forecast layout! Learn more

10-Day Weather Forecast

Advertisements
Track Severe Weather on mobile